Time;durP1;ratioP1;P1;durP2;ratioP2;P2;SDS_P1;SDS_P2;PMS_P1;PMS_P2;Temp;Humidity;BMP_temperature;BMP_pressure;BME280_temperature;BME280_humidity;BME280_pressure;Samples;Min_cycle;Max_cycle;Signal;HPM_P1;HPM_P2
2024/01/21 00:02:21;;;;;;;11.30;6.97;;;0.60;99.90;;;;;;6269711;22;20023;-76
2024/01/21 00:04:48;;;;;;;11.57;7.63;;;0.60;99.90;;;;;;6270227;22;20034;-76
2024/01/21 00:07:13;;;;;;;12.65;7.28;;;0.60;99.90;;;;;;6269858;22;20066;-77
2024/01/21 00:09:39;;;;;;;12.10;7.35;;;0.60;99.90;;;;;;6270257;22;20020;-76
2024/01/21 00:12:05;;;;;;;10.77;6.90;;;0.60;99.90;;;;;;6270718;22;20019;-76
2024/01/21 00:14:30;;;;;;;10.52;7.13;;;0.60;99.90;;;;;;6270272;22;20015;-76
2024/01/21 00:16:56;;;;;;;11.83;6.87;;;0.60;99.90;;;;;;6272000;22;20016;-76
2024/01/21 00:19:22;;;;;;;12.50;7.60;;;0.60;99.90;;;;;;6270343;22;20441;-77
2024/01/21 00:21:47;;;;;;;11.40;7.30;;;0.60;99.90;;;;;;6243658;22;20266;-77
2024/01/21 00:24:13;;;;;;;11.20;6.60;;;0.60;99.90;;;;;;6270812;22;20455;-77
2024/01/21 00:26:39;;;;;;;11.45;7.47;;;0.60;99.90;;;;;;6269515;22;20039;-77
2024/01/21 00:29:04;;;;;;;11.45;7.10;;;0.60;99.90;;;;;;6271144;22;20023;-77
2024/01/21 00:31:30;;;;;;;8.07;5.38;;;0.60;99.90;;;;;;6270052;22;20011;-76
2024/01/21 00:33:56;;;;;;;11.13;6.97;;;0.60;99.90;;;;;;6244375;22;20019;-77
2024/01/21 00:36:21;;;;;;;13.23;7.45;;;0.60;99.90;;;;;;6270027;22;20014;-76
2024/01/21 00:38:47;;;;;;;9.87;6.97;;;0.60;99.90;;;;;;6270004;22;20019;-76
2024/01/21 00:41:16;;;;;;;12.33;7.13;;;0.60;99.90;;;;;;6271230;22;20253;-77
2024/01/21 00:43:42;;;;;;;11.77;6.78;;;0.60;99.90;;;;;;6269138;22;20514;-77
2024/01/21 00:46:08;;;;;;;10.95;7.25;;;0.60;99.90;;;;;;6271562;22;20007;-76
2024/01/21 00:48:34;;;;;;;10.35;6.38;;;0.60;99.90;;;;;;6271781;22;20007;-76
2024/01/21 00:51:00;;;;;;;;;;;0.70;99.90;;;;;;6272381;22;20061;-77
2024/01/21 00:53:26;;;;;;;12.77;6.80;;;0.60;99.90;;;;;;6271576;22;20330;-77
2024/01/21 00:55:51;;;;;;;10.98;6.68;;;0.70;99.90;;;;;;6268955;22;20008;-76
2024/01/21 00:58:17;;;;;;;11.47;6.80;;;0.70;99.90;;;;;;6269155;22;20043;-77
2024/01/21 01:00:42;;;;;;;8.20;5.35;;;0.70;99.90;;;;;;6269492;22;20084;-76
2024/01/21 01:03:08;;;;;;;11.63;6.77;;;0.70;99.90;;;;;;6269545;22;20026;-76
2024/01/21 01:05:34;;;;;;;12.07;7.38;;;0.80;99.90;;;;;;6269830;22;20023;-76
2024/01/21 01:07:59;;;;;;;11.63;7.05;;;0.70;99.90;;;;;;6269587;22;20020;-76
2024/01/21 01:10:25;;;;;;;13.38;8.20;;;0.70;99.90;;;;;;6268387;22;20128;-76
2024/01/21 01:12:50;;;;;;;13.13;7.53;;;0.70;99.90;;;;;;6269030;22;20018;-76
2024/01/21 01:15:16;;;;;;;12.93;8.10;;;0.70;99.90;;;;;;6269535;22;20745;-78
2024/01/21 01:17:42;;;;;;;12.40;7.77;;;0.70;99.90;;;;;;6269192;22;20027;-77
2024/01/21 01:20:08;;;;;;;11.80;7.37;;;0.80;99.90;;;;;;6269563;22;20238;-78
2024/01/21 01:22:35;;;;;;;11.25;7.30;;;0.90;99.90;;;;;;6268947;22;20025;-77
2024/01/21 01:25:00;;;;;;;11.27;7.70;;;0.80;99.90;;;;;;6270297;22;20011;-77
2024/01/21 01:27:26;;;;;;;10.55;7.15;;;0.80;99.90;;;;;;6268551;22;20016;-77
2024/01/21 01:29:52;;;;;;;11.35;7.43;;;0.90;99.90;;;;;;6243590;22;20090;-77
2024/01/21 01:32:18;;;;;;;11.47;7.07;;;0.90;99.90;;;;;;6269129;22;20015;-77
2024/01/21 01:34:43;;;;;;;13.15;7.38;;;0.90;99.90;;;;;;6269409;22;20238;-77
2024/01/21 01:37:09;;;;;;;12.07;7.20;;;0.90;99.90;;;;;;6269015;22;20099;-77
2024/01/21 01:39:35;;;;;;;11.83;7.17;;;1.00;99.90;;;;;;6268721;22;20249;-77
2024/01/21 01:42:01;;;;;;;10.45;6.50;;;1.00;99.90;;;;;;6271120;22;20049;-77
2024/01/21 01:44:27;;;;;;;11.23;7.10;;;1.00;99.90;;;;;;6270472;22;20043;-77
2024/01/21 01:46:52;;;;;;;9.97;6.40;;;1.00;99.90;;;;;;6269011;22;20034;-77
2024/01/21 01:49:19;;;;;;;10.30;7.60;;;1.10;99.10;;;;;;6269217;22;20016;-77
2024/01/21 01:51:45;;;;;;;10.93;6.80;;;1.00;99.90;;;;;;6269400;22;20588;-77
2024/01/21 01:54:11;;;;;;;11.50;7.15;;;1.00;99.90;;;;;;6270122;22;20008;-77
2024/01/21 01:56:38;;;;;;;11.45;7.57;;;1.00;99.90;;;;;;6271326;22;20428;-77
2024/01/21 01:59:09;;;;;;;11.10;6.57;;;1.00;99.90;;;;;;6269940;22;20095;-77
2024/01/21 02:01:38;;;;;;;11.20;7.05;;;1.00;99.90;;;;;;6269349;22;20104;-77
2024/01/21 02:04:06;;;;;;;12.65;6.80;;;0.90;99.90;;;;;;6268578;22;20291;-77
2024/01/21 02:06:32;;;;;;;10.77;7.10;;;0.90;99.90;;;;;;6243508;22;20448;-78
2024/01/21 02:08:58;;;;;;;10.93;6.80;;;0.90;99.90;;;;;;6267971;22;20019;-77
2024/01/21 02:11:23;;;;;;;10.60;5.65;;;0.80;99.90;;;;;;6269246;22;20019;-77
2024/01/21 02:13:49;;;;;;;8.27;5.00;;;0.80;99.90;;;;;;6268363;22;20050;-77
2024/01/21 02:16:15;;;;;;;10.55;6.03;;;0.80;99.90;;;;;;6270315;22;20015;-77
2024/01/21 02:18:46;;;;;;;9.70;6.18;;;0.80;99.90;;;;;;6270600;22;20369;-77
2024/01/21 02:21:12;;;;;;;11.95;6.53;;;0.80;99.90;;;;;;6270925;22;20007;-77
2024/01/21 02:23:38;;;;;;;11.38;6.72;;;0.80;99.90;;;;;;6242226;22;20086;-77
2024/01/21 02:26:03;;;;;;;10.70;6.40;;;0.80;99.90;;;;;;6270848;22;20381;-77
2024/01/21 02:28:29;;;;;;;10.75;6.25;;;0.80;99.90;;;;;;6268155;22;20092;-77
2024/01/21 02:30:55;;;;;;;8.93;5.28;;;0.80;99.90;;;;;;6268820;22;20015;-77
2024/01/21 02:33:20;;;;;;;10.83;6.53;;;0.80;99.90;;;;;;6270639;22;20073;-77
2024/01/21 02:35:46;;;;;;;10.17;6.17;;;0.80;99.90;;;;;;6270365;22;20233;-77
2024/01/21 02:38:11;;;;;;;10.82;5.82;;;0.80;99.90;;;;;;6268541;22;20115;-77
2024/01/21 02:40:38;;;;;;;10.98;6.28;;;0.90;99.90;;;;;;6268932;22;20019;-77
2024/01/21 02:43:04;;;;;;;;;;;0.90;99.90;;;;;;6269059;22;20072;-77
2024/01/21 02:45:30;;;;;;;10.18;5.95;;;0.90;95.60;;;;;;6269121;22;19994;-78
2024/01/21 02:47:56;;;;;;;9.05;5.28;;;0.90;92.60;;;;;;6268881;22;20101;-77
2024/01/21 02:50:21;;;;;;;9.98;5.60;;;0.90;48.40;;;;;;6269756;22;20020;-78
2024/01/21 02:52:47;;;;;;;7.27;4.63;;;1.00;51.30;;;;;;6270773;22;20015;-78
2024/01/21 02:55:13;;;;;;;9.67;5.53;;;1.00;2.00;;;;;;6270481;22;20023;-77
2024/01/21 02:57:38;;;;;;;9.02;5.53;;;1.00;5.20;;;;;;6270440;22;20791;-77
2024/01/21 03:00:04;;;;;;;10.13;5.50;;;1.00;27.20;;;;;;6270361;22;20050;-77
2024/01/21 03:02:31;;;;;;;7.97;4.32;;;1.00;17.20;;;;;;6269642;22;20069;-77
2024/01/21 03:04:56;;;;;;;9.35;5.32;;;1.10;1.00;;;;;;6268471;22;20051;-77
2024/01/21 03:07:22;;;;;;;7.13;4.73;;;1.10;1.00;;;;;;6268315;22;20121;-77
2024/01/21 03:09:48;;;;;;;7.03;4.47;;;1.10;1.00;;;;;;6269743;22;20304;-78
2024/01/21 03:12:13;;;;;;;11.00;5.20;;;1.10;1.00;;;;;;6268389;22;20348;-77
2024/01/21 03:14:39;;;;;;;7.90;4.40;;;1.10;1.00;;;;;;6268524;22;20241;-77
2024/01/21 03:17:05;;;;;;;7.28;4.40;;;1.10;1.00;;;;;;6270802;22;20012;-77
2024/01/21 03:19:30;;;;;;;7.68;4.57;;;1.10;1.00;;;;;;6267947;22;20095;-77
2024/01/21 03:21:56;;;;;;;8.05;4.53;;;1.10;1.00;;;;;;6268857;22;20027;-77
2024/01/21 03:24:21;;;;;;;7.07;4.53;;;1.20;1.00;;;;;;6268266;22;20015;-77
2024/01/21 03:26:47;;;;;;;8.63;4.40;;;1.20;1.00;;;;;;6243093;22;20030;-77
2024/01/21 03:29:13;;;;;;;9.03;4.60;;;1.20;1.00;;;;;;6267852;22;20777;-77
2024/01/21 03:31:38;;;;;;;7.40;4.00;;;1.20;99.90;;;;;;6270597;22;20231;-77
2024/01/21 03:34:04;;;;;;;10.13;4.60;;;1.20;99.90;;;;;;6271034;22;20612;-77
2024/01/21 03:36:30;;;;;;;7.60;3.77;;;1.10;99.90;;;;;;6270652;22;20238;-77
2024/01/21 03:38:55;;;;;;;7.43;3.83;;;1.10;99.90;;;;;;6270524;22;20098;-77
2024/01/21 03:41:21;;;;;;;6.60;3.50;;;1.10;99.90;;;;;;6272206;22;20016;-77
2024/01/21 03:43:46;;;;;;;7.80;4.60;;;1.10;99.90;;;;;;6271796;22;20064;-77
2024/01/21 03:46:12;;;;;;;7.03;3.83;;;1.00;99.90;;;;;;6272737;22;20493;-77
2024/01/21 03:48:38;;;;;;;6.35;3.53;;;1.00;99.90;;;;;;6271642;22;20345;-77
2024/01/21 03:51:04;;;;;;;7.43;4.18;;;1.00;99.90;;;;;;6271971;22;20374;-77
2024/01/21 03:53:30;;;;;;;7.80;3.67;;;1.00;99.90;;;;;;6270356;22;20068;-77
2024/01/21 03:55:55;;;;;;;5.32;3.22;;;1.00;1.00;;;;;;6270291;22;20016;-77
2024/01/21 03:58:21;;;;;;;8.07;3.43;;;1.00;1.00;;;;;;6271748;22;20019;-77
2024/01/21 04:00:47;;;;;;;5.45;3.50;;;0.90;1.00;;;;;;6272010;22;20046;-77
2024/01/21 04:03:12;;;;;;;5.20;3.33;;;0.90;1.50;;;;;;6271222;22;20016;-77
2024/01/21 04:05:38;;;;;;;5.33;3.10;;;0.90;12.20;;;;;;6270582;22;20030;-77
2024/01/21 04:08:05;;;;;;;5.90;3.40;;;0.90;44.80;;;;;;6270135;22;20343;-78
2024/01/21 04:10:31;;;;;;;7.47;3.20;;;0.80;93.70;;;;;;6269803;22;20011;-77
2024/01/21 04:12:56;;;;;;;6.25;3.50;;;0.80;94.90;;;;;;6271257;22;20091;-77
2024/01/21 04:15:22;;;;;;;7.33;3.50;;;0.80;27.50;;;;;;6270071;22;20100;-77
2024/01/21 04:17:47;;;;;;;6.53;3.37;;;0.80;20.60;;;;;;6269474;22;20250;-77
2024/01/21 04:20:13;;;;;;;6.30;3.07;;;0.80;42.30;;;;;;6270358;22;20404;-77
2024/01/21 04:22:38;;;;;;;5.83;3.30;;;0.90;1.00;;;;;;6270226;22;20020;-77
2024/01/21 04:25:04;;;;;;;4.87;2.83;;;0.90;1.00;;;;;;6270058;22;20023;-78
2024/01/21 04:27:30;;;;;;;5.43;3.08;;;0.90;1.00;;;;;;6269525;22;20234;-78
2024/01/21 04:29:56;;;;;;;7.50;3.40;;;0.90;1.00;;;;;;6244574;22;20019;-78
2024/01/21 04:32:21;;;;;;;5.40;3.10;;;0.90;1.00;;;;;;6269571;22;20250;-77
2024/01/21 04:34:47;;;;;;;6.10;3.03;;;0.90;1.00;;;;;;6269913;22;20078;-77
2024/01/21 04:37:12;;;;;;;5.97;3.30;;;0.90;1.00;;;;;;6270104;22;20077;-78
2024/01/21 04:39:38;;;;;;;6.27;2.73;;;1.00;99.90;;;;;;6244423;22;20351;-77
2024/01/21 04:42:03;;;;;;;4.90;3.00;;;1.00;99.90;;;;;;6269462;22;20245;-77
2024/01/21 04:44:29;;;;;;;7.53;3.55;;;1.00;99.90;;;;;;6271273;22;20229;-78
2024/01/21 04:46:55;;;;;;;5.75;2.88;;;1.00;99.90;;;;;;6271082;22;20016;-77
2024/01/21 04:49:20;;;;;;;6.53;2.57;;;1.10;99.90;;;;;;6271457;22;20027;-78
2024/01/21 04:51:46;;;;;;;4.97;2.63;;;1.10;99.90;;;;;;6270078;22;20242;-77
2024/01/21 04:54:12;;;;;;;5.00;2.73;;;1.20;92.50;;;;;;6269436;22;20239;-77
2024/01/21 04:56:37;;;;;;;3.50;2.30;;;1.20;20.40;;;;;;6269372;22;20231;-77
2024/01/21 04:59:03;;;;;;;5.18;2.33;;;1.30;1.00;;;;;;6270799;22;20020;-78
2024/01/21 05:01:29;;;;;;;2.75;1.73;;;1.30;99.90;;;;;;6267422;22;20023;-77
2024/01/21 05:03:54;;;;;;;4.55;2.40;;;1.40;99.90;;;;;;6267962;22;20023;-78
2024/01/21 05:06:20;;;;;;;3.57;2.07;;;1.40;99.90;;;;;;6266992;22;20331;-78
2024/01/21 05:08:46;;;;;;;4.25;2.40;;;1.50;99.90;;;;;;6269507;22;20011;-77
2024/01/21 05:11:15;;;;;;;4.13;2.20;;;1.50;99.90;;;;;;6271490;22;20043;-78
2024/01/21 05:13:41;;;;;;;4.93;2.50;;;1.40;99.90;;;;;;6268919;22;20749;-77
2024/01/21 05:16:06;;;;;;;5.40;2.78;;;1.40;99.90;;;;;;6269074;22;20027;-77
2024/01/21 05:18:32;;;;;;;3.67;2.20;;;1.50;99.90;;;;;;6271597;22;20039;-77
2024/01/21 05:20:58;;;;;;;5.40;2.60;;;1.50;99.90;;;;;;6268303;22;20065;-77
2024/01/21 05:23:23;;;;;;;4.37;2.57;;;1.50;99.90;;;;;;6270814;22;20266;-77
2024/01/21 05:25:52;;;;;;;3.90;2.53;;;1.50;99.90;;;;;;6271156;22;20043;-77
2024/01/21 05:28:18;;;;;;;3.17;2.17;;;1.50;99.90;;;;;;6270662;22;20090;-77
2024/01/21 05:30:43;;;;;;;5.18;2.28;;;1.50;99.90;;;;;;6268919;22;20128;-77
2024/01/21 05:33:09;;;;;;;4.63;2.37;;;1.50;99.90;;;;;;6269317;22;20023;-78
2024/01/21 05:35:35;;;;;;;4.03;2.38;;;1.50;96.40;;;;;;6270945;22;20016;-78
2024/01/21 05:38:00;;;;;;;4.70;2.60;;;1.50;99.90;;;;;;6268933;22;20031;-77
2024/01/21 05:40:26;;;;;;;3.67;2.13;;;1.60;52.10;;;;;;6269949;22;20245;-77
2024/01/21 05:42:51;;;;;;;4.93;2.60;;;1.60;69.50;;;;;;6270382;22;20027;-77
2024/01/21 05:45:17;;;;;;;4.75;2.25;;;1.70;1.00;;;;;;6270782;22;20011;-78
2024/01/21 05:47:43;;;;;;;3.53;2.45;;;1.70;99.90;;;;;;6268139;22;20038;-77
2024/01/21 05:50:09;;;;;;;4.05;2.15;;;1.80;1.00;;;;;;6269214;22;20090;-77
2024/01/21 05:52:36;;;;;;;4.88;2.78;;;1.70;1.00;;;;;;6269094;22;20094;-77
2024/01/21 05:55:03;;;;;;;5.13;2.40;;;1.70;1.00;;;;;;6269277;22;20012;-78
2024/01/21 05:57:29;;;;;;;3.72;2.10;;;1.70;99.90;;;;;;6268348;22;20016;-77
2024/01/21 05:59:55;;;;;;;4.40;2.70;;;1.80;1.00;;;;;;6268544;22;20026;-78
2024/01/21 06:02:21;;;;;;;5.47;2.63;;;1.80;99.90;;;;;;6268898;22;20090;-77
2024/01/21 06:04:46;;;;;;;4.53;2.50;;;1.90;99.90;;;;;;6269000;22;20058;-77
2024/01/21 06:07:12;;;;;;;4.40;2.47;;;1.80;1.00;;;;;;6271103;22;20530;-78
2024/01/21 06:09:37;;;;;;;5.20;2.63;;;1.80;1.00;;;;;;6269045;22;20080;-77
2024/01/21 06:12:03;;;;;;;4.70;2.70;;;1.80;1.00;;;;;;6270374;22;20237;-77
2024/01/21 06:14:29;;;;;;;5.53;2.97;;;1.80;1.00;;;;;;6270403;22;20073;-77
2024/01/21 06:16:54;;;;;;;4.87;2.90;;;1.80;15.10;;;;;;6269125;22;20027;-78
2024/01/21 06:19:20;;;;;;;5.40;2.87;;;1.80;1.00;;;;;;6269565;22;20091;-78
2024/01/21 06:21:45;;;;;;;5.40;3.03;;;1.80;1.00;;;;;;6270694;22;20237;-77
2024/01/21 06:24:12;;;;;;;5.30;3.22;;;1.90;26.80;;;;;;6271050;22;20026;-78
2024/01/21 06:26:38;;;;;;;;;;;1.80;99.90;;;;;;6268662;22;20405;-77
2024/01/21 06:29:04;;;;;;;7.40;3.38;;;1.80;99.90;;;;;;6268528;22;19923;-77
2024/01/21 06:31:30;;;;;;;7.45;3.60;;;1.80;99.90;;;;;;6240978;22;20018;-77
2024/01/21 06:33:55;;;;;;;6.15;3.58;;;1.80;99.90;;;;;;6268639;22;20015;-78
2024/01/21 06:36:24;;;;;;;5.60;3.80;;;1.70;99.90;;;;;;6268970;22;20011;-77
2024/01/21 06:38:50;;;;;;;6.78;3.65;;;1.70;99.90;;;;;;6268542;22;20026;-78
2024/01/21 06:41:16;;;;;;;6.20;3.72;;;1.70;99.90;;;;;;6243379;22;20020;-77
2024/01/21 06:43:41;;;;;;;4.78;3.20;;;1.70;99.90;;;;;;6268883;22;20011;-78
2024/01/21 06:46:08;;;;;;;6.75;3.55;;;1.70;99.90;;;;;;6268564;22;20016;-77
2024/01/21 06:48:34;;;;;;;7.32;4.15;;;1.70;1.00;;;;;;6268926;22;20020;-78
2024/01/21 06:51:01;;;;;;;8.18;3.88;;;1.70;1.00;;;;;;6268718;22;20087;-78
2024/01/21 06:53:26;;;;;;;7.10;3.92;;;1.70;1.00;;;;;;6268904;22;20100;-77
2024/01/21 06:55:52;;;;;;;8.17;4.00;;;1.70;1.00;;;;;;6268885;22;20054;-77
2024/01/21 06:58:17;;;;;;;6.43;3.67;;;1.60;8.20;;;;;;6267554;22;20463;-78
2024/01/21 07:00:45;;;;;;;7.93;3.90;;;1.70;1.00;;;;;;6270735;22;20359;-77
2024/01/21 07:03:11;;;;;;;6.95;3.97;;;1.70;57.00;;;;;;6267681;22;20341;-77
2024/01/21 07:05:36;;;;;;;6.57;3.97;;;1.60;92.10;;;;;;6270041;22;20113;-77
2024/01/21 07:08:02;;;;;;;7.83;3.90;;;1.60;99.90;;;;;;6267705;22;20112;-78
2024/01/21 07:10:28;;;;;;;8.15;3.70;;;1.60;99.90;;;;;;6270515;22;20392;-77
2024/01/21 07:12:55;;;;;;;6.20;3.97;;;1.60;99.90;;;;;;6267913;22;20317;-77
2024/01/21 07:15:21;;;;;;;6.70;3.90;;;1.60;99.90;;;;;;6270098;22;20242;-77
2024/01/21 07:17:47;;;;;;;6.55;4.22;;;1.60;99.90;;;;;;6270736;22;20026;-77
2024/01/21 07:20:13;;;;;;;6.43;4.13;;;1.60;99.90;;;;;;6271956;22;20016;-77
2024/01/21 07:22:38;;;;;;;7.13;4.05;;;1.60;99.90;;;;;;6272357;22;20015;-77
2024/01/21 07:25:04;;;;;;;6.20;4.13;;;1.60;99.90;;;;;;6270351;22;20022;-78
2024/01/21 07:27:30;;;;;;;6.95;4.30;;;1.60;99.90;;;;;;6271232;22;20338;-78
2024/01/21 07:29:55;;;;;;;7.28;4.50;;;1.60;99.90;;;;;;6270300;22;20012;-77
2024/01/21 07:32:21;;;;;;;5.87;4.03;;;1.60;99.90;;;;;;6270332;22;20447;-77
2024/01/21 07:34:47;;;;;;;7.00;4.35;;;1.60;99.90;;;;;;6269216;22;20020;-77
2024/01/21 07:37:12;;;;;;;7.93;4.33;;;1.60;99.90;;;;;;6269829;22;20011;-77
2024/01/21 07:39:38;;;;;;;7.97;4.03;;;1.70;99.90;;;;;;6270217;22;20091;-77
2024/01/21 07:42:04;;;;;;;6.67;4.43;;;1.60;99.90;;;;;;6268967;22;20015;-77
2024/01/21 07:44:29;;;;;;;7.60;4.55;;;1.60;99.90;;;;;;6271837;22;20301;-77
2024/01/21 07:46:55;;;;;;;7.07;4.40;;;1.70;99.90;;;;;;6272372;22;20341;-77
2024/01/21 07:49:20;;;;;;;6.23;4.20;;;1.70;99.90;;;;;;6271323;22;20737;-77
2024/01/21 07:51:46;;;;;;;9.32;4.45;;;1.70;99.90;;;;;;6272277;22;20070;-78
2024/01/21 07:54:12;;;;;;;6.77;4.20;;;1.70;99.90;;;;;;6271553;22;20083;-77
2024/01/21 07:56:38;;;;;;;10.50;4.40;;;1.70;99.90;;;;;;6269444;22;20242;-78
2024/01/21 07:59:03;;;;;;;8.02;4.60;;;1.70;99.90;;;;;;6269379;22;20314;-78
2024/01/21 08:01:29;;;;;;;7.87;4.60;;;1.70;99.90;;;;;;6270040;22;20015;-77
2024/01/21 08:03:54;;;;;;;7.32;4.30;;;1.70;99.90;;;;;;6268483;22;20039;-77
2024/01/21 08:06:20;;;;;;;6.77;4.00;;;1.80;99.90;;;;;;6270514;22;20016;-78
2024/01/21 08:08:47;;;;;;;6.68;4.78;;;1.70;99.90;;;;;;6267194;22;20333;-78
2024/01/21 08:11:12;;;;;;;7.63;4.60;;;1.80;99.90;;;;;;6269171;22;20011;-78
2024/01/21 08:13:38;;;;;;;7.35;4.30;;;1.80;99.90;;;;;;6268899;22;20012;-78
2024/01/21 08:16:04;;;;;;;7.07;4.70;;;1.80;99.90;;;;;;6271986;22;20065;-78
2024/01/21 08:18:29;;;;;;;7.78;5.20;;;1.80;99.90;;;;;;6269753;22;20789;-78
2024/01/21 08:20:55;;;;;;;7.50;4.27;;;1.80;99.90;;;;;;6271773;22;20038;-78
2024/01/21 08:23:21;;;;;;;7.83;4.30;;;1.80;99.90;;;;;;6271265;22;20549;-78
2024/01/21 08:25:47;;;;;;;7.05;4.40;;;1.90;99.90;;;;;;6243832;22;20245;-78
2024/01/21 08:28:12;;;;;;;8.45;4.80;;;1.90;99.90;;;;;;6269220;22;20496;-77
2024/01/21 08:30:39;;;;;;;8.98;5.15;;;1.90;99.90;;;;;;6271642;22;20014;-78
2024/01/21 08:33:04;;;;;;;9.20;5.10;;;1.90;99.90;;;;;;6271561;22;20086;-77
2024/01/21 08:35:30;;;;;;;7.75;5.05;;;1.90;99.90;;;;;;6271910;22;20043;-77
2024/01/21 08:37:55;;;;;;;7.90;4.60;;;2.00;99.90;;;;;;6269771;22;20090;-77
2024/01/21 08:40:21;;;;;;;7.70;4.43;;;2.00;99.90;;;;;;6271252;22;20042;-77
2024/01/21 08:42:47;;;;;;;7.68;4.72;;;2.00;99.90;;;;;;6269354;22;20238;-77
2024/01/21 08:45:12;;;;;;;6.97;4.20;;;2.00;99.90;;;;;;6269521;22;20055;-77
2024/01/21 08:47:38;;;;;;;5.38;3.58;;;2.00;99.90;;;;;;6268092;22;20021;-77
2024/01/21 08:50:04;;;;;;;9.15;4.80;;;2.10;99.90;;;;;;6269505;22;20429;-77
2024/01/21 08:52:30;;;;;;;11.35;5.28;;;2.10;99.90;;;;;;6271343;22;20011;-77
2024/01/21 08:54:56;;;;;;;7.53;4.65;;;2.10;99.90;;;;;;6263843;22;20023;-76
2024/01/21 08:57:22;;;;;;;7.72;4.28;;;2.20;99.90;;;;;;6269905;22;20459;-77
2024/01/21 08:59:50;;;;;;;5.00;3.40;;;2.20;1.00;;;;;;6269390;22;20071;-76
2024/01/21 09:02:15;;;;;;;9.68;5.20;;;2.30;1.00;;;;;;6270748;22;20361;-76
2024/01/21 09:04:41;;;;;;;7.27;4.07;;;2.30;1.00;;;;;;6268644;22;20023;-76
2024/01/21 09:07:06;;;;;;;7.03;4.40;;;2.40;99.90;;;;;;6268225;22;20047;-77
2024/01/21 09:09:33;;;;;;;7.97;5.18;;;2.30;1.00;;;;;;6269850;22;20683;-77
2024/01/21 09:11:59;;;;;;;8.82;4.85;;;2.30;3.80;;;;;;6268923;22;20043;-77
2024/01/21 09:14:25;;;;;;;7.88;4.47;;;2.30;64.80;;;;;;6270398;22;20015;-77
2024/01/21 09:16:50;;;;;;;9.15;4.88;;;2.40;1.00;;;;;;6268902;22;20073;-78
2024/01/21 09:19:16;;;;;;;7.63;4.53;;;2.30;99.90;;;;;;6269312;22;20085;-78
2024/01/21 09:21:42;;;;;;;6.82;4.70;;;2.30;99.90;;;;;;6270976;22;20238;-77
2024/01/21 09:24:11;;;;;;;10.57;5.03;;;2.40;99.90;;;;;;6268561;22;20047;-77
2024/01/21 09:26:37;;;;;;;8.48;5.18;;;2.50;99.90;;;;;;6269947;22;20679;-78
2024/01/21 09:29:03;;;;;;;7.93;4.82;;;2.60;66.10;;;;;;6265224;22;20012;-78
2024/01/21 09:31:29;;;;;;;7.72;5.00;;;2.60;35.20;;;;;;6269942;22;20018;-77
2024/01/21 09:33:56;;;;;;;8.30;5.07;;;2.70;1.00;;;;;;6268729;22;20691;-77
2024/01/21 09:36:23;;;;;;;6.85;4.75;;;2.70;1.00;;;;;;6269118;22;20095;-77
2024/01/21 09:38:50;;;;;;;9.32;4.82;;;2.70;1.00;;;;;;6270449;22;20429;-78
2024/01/21 09:41:37;;;;;;;7.30;4.78;;;2.80;1.00;;;;;;6268803;22;20055;-78
2024/01/21 09:44:03;;;;;;;9.45;5.28;;;2.80;1.00;;;;;;6268351;22;20020;-78
2024/01/21 09:46:29;;;;;;;8.05;5.03;;;2.80;1.00;;;;;;6268690;22;20060;-77
2024/01/21 09:48:57;;;;;;;9.60;5.50;;;2.90;1.00;;;;;;6265971;22;20027;-77
2024/01/21 09:51:23;;;;;;;8.43;5.60;;;2.90;1.00;;;;;;6266116;22;20016;-77
2024/01/21 09:53:49;;;;;;;8.48;5.00;;;3.00;1.00;;;;;;6266342;22;20015;-77
2024/01/21 09:56:17;;;;;;;9.10;5.45;;;2.90;34.10;;;;;;6267569;22;20467;-77
2024/01/21 09:58:52;;;;;;;8.68;5.47;;;3.00;48.90;;;;;;6266460;22;20011;-77
2024/01/21 10:01:20;;;;;;;9.60;4.85;;;3.00;56.10;;;;;;6268233;22;20020;-78
2024/01/21 10:03:46;;;;;;;9.23;5.95;;;3.10;89.10;;;;;;6267574;22;20022;-78
2024/01/21 10:06:13;;;;;;;10.23;5.53;;;3.10;99.90;;;;;;6267047;22;20046;-77
2024/01/21 10:08:39;;;;;;;8.13;4.90;;;3.10;99.90;;;;;;6266870;22;20019;-78
2024/01/21 10:11:05;;;;;;;;;;;3.20;99.90;;;;;;6268743;22;20015;-77
2024/01/21 10:13:34;;;;;;;9.23;5.03;;;3.20;99.90;;;;;;6242360;22;19965;-78
2024/01/21 10:15:59;;;;;;;8.73;5.32;;;3.20;99.90;;;;;;6270010;22;20008;-78
2024/01/21 10:18:28;;;;;;;9.13;5.22;;;3.30;99.90;;;;;;6242288;22;20547;-78
2024/01/21 10:20:53;;;;;;;9.38;5.45;;;3.30;99.90;;;;;;6269281;22;20310;-77
2024/01/21 10:23:19;;;;;;;8.40;4.95;;;3.40;99.90;;;;;;6267253;22;20118;-78
2024/01/21 10:25:47;;;;;;;10.13;5.57;;;3.50;99.90;;;;;;6269152;22;20051;-78
2024/01/21 10:28:13;;;;;;;8.18;5.25;;;3.50;99.90;;;;;;6267445;22;20026;-78
2024/01/21 10:30:42;;;;;;;9.48;5.65;;;3.70;99.90;;;;;;6269590;22;20011;-78
2024/01/21 10:33:07;;;;;;;8.93;5.70;;;3.70;99.90;;;;;;6264933;22;20467;-78
2024/01/21 10:35:33;;;;;;;9.53;6.07;;;3.70;99.90;;;;;;6269455;22;20011;-78
2024/01/21 10:38:02;;;;;;;9.10;5.28;;;3.70;99.90;;;;;;6268146;22;20241;-78
2024/01/21 10:40:28;;;;;;;8.30;5.70;;;3.70;99.90;;;;;;6268091;22;20016;-79
2024/01/21 10:42:58;;;;;;;8.55;5.60;;;3.60;99.90;;;;;;6266397;22;20677;-79
2024/01/21 10:45:25;;;;;;;8.50;5.75;;;3.70;99.90;;;;;;6241165;22;20076;-78
2024/01/21 10:47:52;;;;;;;9.55;6.13;;;3.70;99.90;;;;;;6267409;22;20019;-78
2024/01/21 10:50:19;;;;;;;8.73;5.68;;;3.70;99.90;;;;;;6266702;22;20012;-78
2024/01/21 10:52:47;;;;;;;9.20;5.90;;;3.70;99.90;;;;;;6267607;22;20008;-78
2024/01/21 10:55:13;;;;;;;9.82;6.10;;;3.70;99.90;;;;;;6268187;22;20039;-78
2024/01/21 10:57:39;;;;;;;10.15;5.50;;;3.80;99.90;;;;;;6267578;22;20019;-78
2024/01/21 11:00:06;;;;;;;9.00;5.82;;;3.80;99.90;;;;;;6267264;22;20756;-77
2024/01/21 11:02:32;;;;;;;10.45;6.00;;;3.80;99.90;;;;;;6267223;22;20015;-77
2024/01/21 11:04:58;;;;;;;7.88;5.72;;;3.80;99.90;;;;;;6267334;22;20096;-77
2024/01/21 11:07:29;;;;;;;9.15;5.68;;;3.80;99.90;;;;;;6265424;22;20011;-77
2024/01/21 11:09:56;;;;;;;10.40;6.20;;;3.80;99.90;;;;;;6266729;22;20539;-78
2024/01/21 11:12:23;;;;;;;9.85;5.70;;;3.80;99.90;;;;;;6267598;22;20046;-78
2024/01/21 11:14:48;;;;;;;8.48;5.78;;;3.90;99.90;;;;;;6268194;22;20016;-77
2024/01/21 11:17:17;;;;;;;9.73;6.55;;;3.90;99.90;;;;;;6269234;22;20490;-78
2024/01/21 11:19:50;;;;;;;10.93;6.38;;;4.00;99.90;;;;;;6267414;22;20433;-77
2024/01/21 11:22:18;;;;;;;7.95;5.45;;;4.00;99.90;;;;;;6267881;22;20301;-78
2024/01/21 11:24:45;;;;;;;12.43;5.82;;;4.00;99.90;;;;;;6264882;22;20015;-77
2024/01/21 11:27:21;;;;;;;9.38;6.20;;;4.00;99.90;;;;;;6265984;22;20031;-77
2024/01/21 11:29:55;;;;;;;9.65;5.82;;;4.00;99.90;;;;;;6267061;22;20107;-78
2024/01/21 11:32:26;;;;;;;9.63;5.93;;;4.00;99.90;;;;;;6241066;22;20340;-77
2024/01/21 11:34:52;;;;;;;9.95;6.00;;;4.00;99.90;;;;;;6267022;22;20707;-78
2024/01/21 11:37:18;;;;;;;9.02;5.85;;;4.00;99.90;;;;;;6268823;22;20018;-77
2024/01/21 11:39:44;;;;;;;10.10;6.38;;;4.00;99.90;;;;;;6267526;22;20091;-78
2024/01/21 11:42:10;;;;;;;12.23;6.30;;;4.00;99.90;;;;;;6267456;22;20045;-77
2024/01/21 11:44:37;;;;;;;10.05;6.28;;;4.00;99.90;;;;;;6242429;22;20464;-78
2024/01/21 11:47:04;;;;;;;11.48;6.40;;;4.00;99.90;;;;;;6241793;22;20016;-77
2024/01/21 11:49:31;;;;;;;11.25;5.90;;;4.00;99.90;;;;;;6267096;22;20065;-77
2024/01/21 11:51:59;;;;;;;10.88;6.38;;;4.10;99.90;;;;;;6267650;22;20674;-78
2024/01/21 11:54:25;;;;;;;8.05;5.45;;;4.10;99.90;;;;;;6268283;22;20133;-77
2024/01/21 11:56:52;;;;;;;10.10;6.38;;;4.00;99.90;;;;;;6269007;22;20073;-77
2024/01/21 11:59:18;;;;;;;10.20;6.55;;;4.10;99.90;;;;;;6268649;22;20020;-77
2024/01/21 12:01:45;;;;;;;9.20;6.43;;;4.10;99.90;;;;;;6269541;22;20016;-77
2024/01/21 12:04:10;;;;;;;;;;;4.10;99.90;;;;;;6269222;22;20023;-77
2024/01/21 12:06:41;;;;;;;9.73;6.13;;;4.10;99.90;;;;;;6268966;22;19911;-77
2024/01/21 12:09:08;;;;;;;10.15;6.38;;;4.10;99.90;;;;;;6271010;22;20288;-77
2024/01/21 12:11:38;;;;;;;11.88;6.93;;;4.10;99.90;;;;;;6268668;22;20016;-77
2024/01/21 12:14:13;;;;;;;11.57;6.47;;;4.20;99.90;;;;;;6268066;22;20008;-79
2024/01/21 12:16:39;;;;;;;10.68;6.65;;;4.10;99.90;;;;;;6267487;22;20015;-78
2024/01/21 12:19:05;;;;;;;9.30;6.25;;;4.10;99.90;;;;;;6266193;22;20098;-78
2024/01/21 12:21:31;;;;;;;11.93;6.78;;;4.10;99.90;;;;;;6269170;22;20109;-78
2024/01/21 12:23:58;;;;;;;;;;;4.10;99.90;;;;;;6268562;22;20020;-78
2024/01/21 12:26:24;;;;;;;9.13;6.28;;;4.10;99.90;;;;;;6260007;22;19915;-78
2024/01/21 12:29:00;;;;;;;10.30;6.75;;;4.10;99.90;;;;;;6265797;22;20020;-78
2024/01/21 12:31:29;;;;;;;10.95;6.53;;;4.10;99.90;;;;;;6263088;22;20047;-78
2024/01/21 12:33:57;;;;;;;11.30;6.55;;;4.10;99.90;;;;;;6266969;22;20420;-78
2024/01/21 12:36:23;;;;;;;10.90;6.78;;;4.10;99.90;;;;;;6268231;22;20011;-78
2024/01/21 12:38:50;;;;;;;10.07;6.90;;;4.10;99.90;;;;;;6268632;22;20023;-78
2024/01/21 12:41:17;;;;;;;11.30;6.93;;;4.10;99.90;;;;;;6267943;22;20087;-77
2024/01/21 12:43:43;;;;;;;10.20;6.88;;;4.10;99.90;;;;;;6267134;22;20451;-78
2024/01/21 12:46:10;;;;;;;9.50;6.50;;;4.10;99.90;;;;;;6266234;22;20022;-78
2024/01/21 12:48:35;;;;;;;10.82;6.88;;;4.10;99.90;;;;;;6267178;22;20337;-77
2024/01/21 12:51:01;;;;;;;12.87;7.13;;;4.10;99.90;;;;;;6269927;22;20047;-77
2024/01/21 12:53:29;;;;;;;11.10;6.93;;;4.20;99.90;;;;;;6268026;22;20323;-78